Terminal Aerodrome Forecast
Issued by NWS Memphis, TN

Home | Current Version | Previous Version | Text Only | Print | Product List | Glossary On
Versions: 1 2 3 4 5 6 7 8 9 10 11 12 13 14 15 16 17 18
000
FTUS44 KMEG 290520
TAFMKL
TAF
KMKL 290520Z 2906/3006 01007KT P6SM OVC006
     FM290900 04005KT 4SM BR OVC005
     FM291400 03005KT 5SM BR SCT005 OVC020
     FM291800 02005KT P6SM SCT030 OVC250
     FM300200 03005KT P6SM OVC040=

USA.gov is the U.S. government's official web portal to all federal, state and local government web resources and services.